»·PEaware :: AAL227 YSSY-KLAX

AAL227 :: YSSY-KLAX

FLIGHT INFORMATION

Flight Status: Arrived
Operator:
American Airlines
More flights by this operator :: More flights under this callsign
Pilot: Andrew I. (24220)
Aircraft: Unknown
(B789)
More flights by this aircraft type
Origin: YSSY Kingsford Smith Intl
Australia
Destination: KLAX Los Angeles Intl
United States
More flights between these airports :: More routes between these airports
Route: +EESSA RYDRR2
File this flight plan on PilotEdge
Remarks: RMK / SIMBRIEF
Altitude:
(Current/Filed)
35,000ft
Speed:
(Current/Filed)
499kts
Departed: 05-May-19 08:47 PM
Arrived: 05-May-19 09:43 PM
Distance/Time
Traveled:
6508nm/0:56
Distance/Time
To Go:
Arrived

Flight Plot

Page will automatically refresh every two minutes.

Flight plan parsing failed; only flown route is shown


Map Options




Map Legend


Flown Route
Filed Route
Departure Airport
Arrival Airport
Navaid (VOR, NDB)
Fix

Horizontal Profiles

Position Reports

Time Latitude Longitude Heading Altitude Ground
Speed
05-May-19 20:45 32.004203 -124.802839 62 39020ft 536kts
05-May-19 20:46 32.059738 -124.639987 62 39022ft 535kts
05-May-19 20:47 32.115008 -124.477167 62 39030ft 536kts
05-May-19 20:48 32.170351 -124.313283 62 39025ft 538kts
05-May-19 20:49 32.224476 -124.148215 66 39022ft 539kts
05-May-19 20:50 32.267141 -123.978111 70 39022ft 543kts
05-May-19 20:51 32.303428 -123.804420 72 39030ft 545kts
05-May-19 20:52 32.339192 -123.630200 72 39025ft 546kts
05-May-19 20:53 32.374801 -123.455968 72 39017ft 546kts
05-May-19 20:54 32.410309 -123.280897 72 39023ft 546kts
05-May-19 20:55 32.445534 -123.105887 72 39031ft 546kts
05-May-19 20:56 32.482937 -122.931625 69 39022ft 546kts
05-May-19 20:57 32.522892 -122.758601 69 39017ft 545kts
05-May-19 20:58 32.562686 -122.585261 69 39026ft 545kts
05-May-19 20:59 32.602155 -122.411996 70 39030ft 545kts
05-May-19 21:00 32.641529 -122.237955 70 39021ft 545kts
05-May-19 21:01 32.681243 -122.064391 64 38997ft 544kts
05-May-19 21:02 32.756218 -121.911028 49 39024ft 533kts
05-May-19 21:03 32.834896 -121.762914 51 39028ft 530kts
05-May-19 21:04 32.912146 -121.613815 51 39018ft 529kts
05-May-19 21:05 32.989100 -121.464619 56 38985ft 529kts
05-May-19 21:06 33.065933 -121.314745 56 38951ft 532kts
05-May-19 21:07 33.143131 -121.164158 56 38958ft 534kts
05-May-19 21:08 33.170593 -121.110365 56 38953ft 534kts
05-May-19 21:09 33.247830 -120.958646 57 37946ft 533kts
05-May-19 21:10 33.324408 -120.807600 56 35720ft 529kts
05-May-19 21:11 33.400237 -120.657474 56 33625ft 529kts
05-May-19 21:12 33.476570 -120.505696 57 31484ft 532kts
05-May-19 21:13 33.551774 -120.355557 57 29463ft 517kts
05-May-19 21:14 33.624114 -120.210444 57 27465ft 496kts
05-May-19 21:15 33.693166 -120.071470 57 25465ft 475kts
05-May-19 21:16 33.759440 -119.937531 58 23461ft 457kts
05-May-19 21:17 33.823288 -119.808122 58 21461ft 444kts
05-May-19 21:18 33.885392 -119.681787 58 19460ft 433kts
05-May-19 21:19 33.945932 -119.558128 59 17457ft 422kts
05-May-19 21:20 34.004557 -119.437905 59 15458ft 410kts
05-May-19 21:21 34.061142 -119.321570 59 13444ft 393kts
05-May-19 21:22 34.113326 -119.214006 60 11467ft 352kts
05-May-19 21:23 34.159231 -119.119012 60 10970ft 312kts
05-May-19 21:24 34.169522 -119.022461 117 11019ft 312kts
05-May-19 21:25 34.129698 -118.920432 118 10994ft 349kts
05-May-19 21:26 34.088085 -118.813262 118 10984ft 354kts
05-May-19 21:27 34.046343 -118.706338 117 9988ft 352kts
05-May-19 21:28 34.021916 -118.605187 95 8977ft 345kts
05-May-19 21:29 34.013084 -118.489995 97 8028ft 341kts
05-May-19 21:30 34.019605 -118.393113 76 6797ft 307kts
05-May-19 21:31 34.032921 -118.299469 83 5890ft 268kts
05-May-19 21:32 34.025455 -118.213030 105 5907ft 262kts
05-May-19 21:33 34.013423 -118.126258 100 5367ft 262kts
05-May-19 21:34 33.995041 -118.043908 134 5048ft 252kts
05-May-19 21:35 33.940045 -118.053988 245 5069ft 223kts
05-May-19 21:36 33.948935 -118.128251 275 4851ft 231kts
05-May-19 21:37 33.952127 -118.200164 272 3298ft 180kts
05-May-19 21:38 33.951624 -118.252154 267 3134ft 144kts
05-May-19 21:39 33.947344 -118.299896 262 2353ft 142kts
05-May-19 21:40 33.941011 -118.348117 262 1114ft 156kts
05-May-19 21:41 33.936494 -118.394482 256 140ft 116kts
05-May-19 21:42 33.935370 -118.407448 327 139ft 7kts
05-May-19 21:43 33.936949 -118.409106 350 139ft 10kts
05-May-19 21:44 33.938746 -118.408400 78 139ft 8kts
05-May-19 21:45 33.939576 -118.408084 352 139ft 8kts
05-May-19 21:46 33.941608 -118.407987 79 139ft 4kts
05-May-19 21:47 33.941634 -118.407687 84 139ft 0kts
05-May-19 21:48 33.941634 -118.407687 84 139ft 0kts

Navigation Log

Ident Type
Flight plan parsing failed, navigation log unavailable